Arapahoe, Wyoming
Current Conditions -  °F | °C
As of 8:53 AM on Monday 24 Nov 2014 (Local Time) from KRIW Reporting Station
Few Clouds Few Clouds  
Wind Chill: 18°   Ceiling: Unl
Heat Index: 26°   Visibility: 10mi
Dew Point: 15°   Wind: 8mph
Humidity: 63%   Direction: 350°N
Pressure: 30.04"   Gusts: NA
Location:  42.96°N, 108.49°W
Report Text: KRIW 241553Z AUTO 35007KT 10SM FEW100 FEW120 M03/M09 A3004 RMK AO2 SLP201 T10331094
Loading
Personal Weather Stations






























Interactive Weather Map New forecast layout! Learn more

10-Day Weather Forecast

Advertisements
Track Severe Weather on mobile